Time;durP1;ratioP1;P1;durP2;ratioP2;P2;SDS_P1;SDS_P2;PMS_P1;PMS_P2;Temp;Humidity;BMP_temperature;BMP_pressure;BME280_temperature;BME280_humidity;BME280_pressure;Samples;Min_cycle;Max_cycle;Signal;HPM_P1;HPM_P2
2024/04/13 00:00:11;;;;;;;4.83;3.90;;;18.60;99.90;;;;;;5364910;26;21045;-42
2024/04/13 00:02:41;;;;;;;7.17;3.90;;;18.60;99.90;;;;;;5363397;26;20500;-42
2024/04/13 00:05:07;;;;;;;7.27;4.87;;;18.60;99.90;;;;;;5396071;26;20547;-42
2024/04/13 00:07:33;;;;;;;5.17;4.00;;;18.60;99.90;;;;;;5395655;26;20512;-42
2024/04/13 00:10:03;;;;;;;7.60;3.57;;;18.60;99.90;;;;;;5396180;26;20554;-43
2024/04/13 00:12:30;;;;;;;4.23;3.83;;;18.60;99.90;;;;;;5363985;26;20871;-42
2024/04/13 00:14:58;;;;;;;6.30;3.40;;;18.60;99.90;;;;;;5393706;26;21266;-39
2024/04/13 00:17:26;;;;;;;5.00;3.97;;;18.60;99.90;;;;;;5364282;26;20913;-39
2024/04/13 00:19:52;;;;;;;4.40;3.70;;;18.60;99.90;;;;;;5307918;26;20474;-40
2024/04/13 00:22:21;;;;;;;4.67;4.27;;;18.50;99.90;;;;;;5336019;26;20529;-42
2024/04/13 00:24:51;;;;;;;4.10;3.70;;;18.50;99.90;;;;;;5395285;26;20474;-42
2024/04/13 00:27:17;;;;;;;4.20;3.50;;;18.50;99.90;;;;;;5336285;26;20511;-41
2024/04/13 00:29:43;;;;;;;5.10;3.43;;;18.50;99.90;;;;;;5363790;26;20471;-40
2024/04/13 00:32:09;;;;;;;5.00;3.63;;;18.50;99.90;;;;;;5358833;26;21482;-40
2024/04/13 00:34:35;;;;;;;5.30;3.00;;;18.50;99.90;;;;;;5359392;26;20464;-40
2024/04/13 00:37:04;;;;;;;5.93;4.33;;;18.50;99.90;;;;;;5394284;26;20605;-42
2024/04/13 00:39:31;;;;;;;3.87;3.47;;;18.50;99.90;;;;;;5365794;26;21133;-42
2024/04/13 00:41:59;;;;;;;4.97;3.70;;;18.50;99.90;;;;;;5364480;26;20459;-43
2024/04/13 00:44:25;;;;;;;4.50;3.37;;;18.40;99.90;;;;;;5352708;26;20480;-42
2024/04/13 00:47:04;;;;;;;4.53;3.80;;;18.40;99.90;;;;;;5385695;26;20558;-42
2024/04/13 00:49:32;;;;;;;5.20;4.17;;;18.50;99.90;;;;;;5396032;26;20881;-42
2024/04/13 00:51:58;;;;;;;3.93;3.53;;;18.50;99.90;;;;;;5396233;26;20977;-43
2024/04/13 00:54:26;;;;;;;5.67;3.80;;;18.40;99.90;;;;;;5366784;26;20499;-45
2024/04/13 00:56:58;;;;;;;6.67;4.43;;;18.40;99.90;;;;;;5338064;26;20452;-41
2024/04/13 00:59:26;;;;;;;5.60;4.53;;;18.40;99.90;;;;;;5370477;26;21385;-39
2024/04/13 01:01:57;;;;;;;4.83;3.43;;;18.40;99.90;;;;;;5331755;26;20457;-41
2024/04/13 01:04:23;;;;;;;5.93;4.20;;;18.40;99.90;;;;;;5374540;26;21327;-42
2024/04/13 01:06:52;;;;;;;4.47;3.70;;;18.40;99.90;;;;;;5332769;26;20468;-41
2024/04/13 01:09:22;;;;;;;7.00;4.43;;;18.40;99.90;;;;;;5393810;26;21264;-42
2024/04/13 01:11:48;;;;;;;4.13;3.73;;;18.40;99.90;;;;;;5377431;26;20552;-42
2024/04/13 01:14:14;;;;;;;4.60;4.00;;;18.40;99.90;;;;;;5394353;26;20448;-42
2024/04/13 01:16:40;;;;;;;5.63;4.40;;;18.40;99.90;;;;;;5395280;26;20606;-43
2024/04/13 01:19:07;;;;;;;5.80;3.97;;;18.40;99.90;;;;;;5372209;26;21029;-43
2024/04/13 01:21:36;;;;;;;4.87;4.10;;;18.40;99.90;;;;;;5387429;26;20519;-42
2024/04/13 01:24:05;;;;;;;4.93;4.30;;;18.40;99.90;;;;;;5352822;26;20523;-41
2024/04/13 01:26:39;;;;;;;4.23;3.77;;;18.30;99.90;;;;;;5420083;21;21280;-31
2024/04/13 01:29:08;;;;;;;4.93;3.70;;;18.30;99.90;;;;;;5395309;26;20522;-30
2024/04/13 01:31:38;;;;;;;4.40;3.77;;;18.30;99.90;;;;;;5369046;26;20451;-30
2024/04/13 01:34:07;;;;;;;7.90;4.93;;;18.30;99.90;;;;;;5397230;26;21064;-29
2024/04/13 01:36:42;;;;;;;5.33;3.33;;;18.30;99.90;;;;;;5398940;26;20598;-31
2024/04/13 01:39:11;;;;;;;5.70;3.70;;;18.30;99.90;;;;;;5396978;26;20462;-30
2024/04/13 01:41:42;;;;;;;4.37;3.97;;;18.30;99.90;;;;;;5397189;26;20499;-30
2024/04/13 01:44:11;;;;;;;6.30;4.23;;;18.30;99.90;;;;;;5399183;26;20447;-31
2024/04/13 01:46:38;;;;;;;5.30;4.20;;;18.30;99.90;;;;;;5367089;26;20542;-30
2024/04/13 01:49:05;;;;;;;7.27;4.67;;;18.30;99.90;;;;;;5397728;26;20436;-30
2024/04/13 01:51:34;;;;;;;5.53;3.93;;;18.30;99.90;;;;;;5398764;26;20484;-30
2024/04/13 01:54:00;;;;;;;4.73;4.23;;;18.30;99.90;;;;;;5399149;26;21445;-31
2024/04/13 01:56:29;;;;;;;7.00;4.27;;;18.30;99.90;;;;;;5396876;26;20462;-31
2024/04/13 01:58:56;;;;;;;4.23;3.47;;;18.20;99.90;;;;;;5397454;26;20439;-29
2024/04/13 02:01:22;;;;;;;4.57;3.57;;;18.20;99.90;;;;;;5396756;26;21125;-31
2024/04/13 02:03:49;;;;;;;5.63;4.00;;;18.20;99.90;;;;;;5426229;26;21290;-31
2024/04/13 02:06:15;;;;;;;4.93;4.43;;;18.20;99.90;;;;;;5398538;26;20509;-30
2024/04/13 02:08:43;;;;;;;6.40;4.10;;;18.20;99.90;;;;;;5399241;26;20512;-29
2024/04/13 02:11:10;;;;;;;4.50;3.70;;;18.20;99.90;;;;;;5399089;26;20514;-29
2024/04/13 02:13:36;;;;;;;4.33;3.93;;;18.20;99.90;;;;;;5397254;26;20507;-30
2024/04/13 02:16:05;;;;;;;4.80;3.87;;;18.20;99.90;;;;;;5398225;26;20610;-30
2024/04/13 02:18:31;;;;;;;5.37;3.80;;;18.20;99.90;;;;;;5367827;26;20546;-30
2024/04/13 02:20:58;;;;;;;4.10;3.60;;;18.20;99.90;;;;;;5397361;26;20487;-30
2024/04/13 02:23:24;;;;;;;5.23;4.30;;;18.20;99.90;;;;;;5398863;26;20451;-30
2024/04/13 02:25:50;;;;;;;3.80;3.40;;;18.10;99.90;;;;;;5397530;26;20515;-29
2024/04/13 02:28:16;;;;;;;4.20;3.80;;;18.10;99.90;;;;;;5396069;26;20455;-31
2024/04/13 02:30:43;;;;;;;4.67;3.73;;;18.10;99.90;;;;;;5398407;26;20560;-31
2024/04/13 02:33:09;;;;;;;5.83;4.00;;;18.10;99.90;;;;;;5398568;26;20455;-30
2024/04/13 02:35:38;;;;;;;4.17;3.70;;;18.10;99.90;;;;;;5397651;26;20503;-29
2024/04/13 02:38:04;;;;;;;5.33;3.97;;;18.10;99.90;;;;;;5367134;26;20546;-30
2024/04/13 02:40:30;;;;;;;4.60;4.00;;;18.10;99.90;;;;;;5398905;26;21096;-32
2024/04/13 02:43:03;;;;;;;5.40;4.57;;;18.10;99.90;;;;;;5396866;26;21342;-29
2024/04/13 02:45:29;;;;;;;4.13;3.53;;;18.10;99.90;;;;;;5398573;26;20519;-30
2024/04/13 02:47:55;;;;;;;4.20;3.60;;;18.10;99.90;;;;;;5395490;26;20515;-29
2024/04/13 02:50:21;;;;;;;4.87;3.87;;;18.10;99.90;;;;;;5398859;26;20490;-31
2024/04/13 02:52:47;;;;;;;4.90;3.93;;;18.10;99.90;;;;;;5398001;26;20439;-29
2024/04/13 02:55:14;;;;;;;4.97;4.20;;;18.10;99.90;;;;;;5398761;26;20229;-31
2024/04/13 02:57:40;;;;;;;4.57;3.73;;;18.10;99.90;;;;;;5397801;26;20460;-29
2024/04/13 03:00:07;;;;;;;5.77;3.80;;;18.10;99.90;;;;;;5398299;26;21002;-31
2024/04/13 03:02:34;;;;;;;4.40;3.90;;;18.00;99.90;;;;;;5395791;26;20455;-30
2024/04/13 03:05:01;;;;;;;6.70;4.27;;;18.00;99.90;;;;;;5396427;26;20579;-30
2024/04/13 03:07:29;;;;;;;7.40;3.87;;;18.00;99.90;;;;;;5398165;26;20448;-29
2024/04/13 03:09:55;;;;;;;4.53;3.80;;;18.00;99.90;;;;;;5396118;26;20986;-31
2024/04/13 03:12:21;;;;;;;6.10;4.20;;;18.00;99.90;;;;;;5396028;26;21294;-31
2024/04/13 03:14:50;;;;;;;3.93;3.63;;;18.00;99.90;;;;;;5396980;26;20557;-30
2024/04/13 03:17:16;;;;;;;3.90;3.57;;;18.00;99.90;;;;;;5396006;26;20550;-30
2024/04/13 03:19:42;;;;;;;5.23;4.03;;;18.00;99.90;;;;;;5397860;26;20514;-31
2024/04/13 03:22:08;;;;;;;5.00;3.80;;;18.00;99.90;;;;;;5397859;26;20463;-30
2024/04/13 03:24:35;;;;;;;5.70;4.30;;;18.00;99.90;;;;;;5366717;26;20447;-31
2024/04/13 03:27:02;;;;;;;4.70;4.20;;;18.00;99.90;;;;;;5396910;26;20451;-31
2024/04/13 03:29:28;;;;;;;4.60;4.20;;;18.00;99.90;;;;;;5398525;26;20482;-31
2024/04/13 03:31:55;;;;;;;5.63;3.67;;;17.90;99.90;;;;;;5398003;26;20440;-31
2024/04/13 03:34:20;;;;;;;6.33;4.60;;;18.00;99.90;;;;;;5399243;26;20454;-29
2024/04/13 03:36:47;;;;;;;5.37;4.17;;;17.90;99.90;;;;;;5396732;26;21002;-30
2024/04/13 03:39:13;;;;;;;5.10;4.30;;;17.90;99.90;;;;;;5401492;26;20808;-31
2024/04/13 03:41:39;;;;;;;4.80;3.83;;;17.90;99.90;;;;;;5398412;26;20514;-30
2024/04/13 03:44:05;;;;;;;5.57;4.00;;;17.90;99.90;;;;;;5399558;26;20473;-30
2024/04/13 03:46:31;;;;;;;4.53;4.13;;;17.90;99.90;;;;;;5396010;26;20452;-31
2024/04/13 03:48:59;;;;;;;4.90;4.27;;;17.90;99.90;;;;;;5397932;26;20455;-31
2024/04/13 03:51:24;;;;;;;4.20;3.80;;;17.90;99.90;;;;;;5399934;26;20444;-30
2024/04/13 03:53:51;;;;;;;3.60;3.30;;;17.90;99.90;;;;;;5401477;26;20447;-31
2024/04/13 03:56:22;;;;;;;4.57;4.07;;;17.90;99.90;;;;;;5371668;26;20743;-30
2024/04/13 03:58:48;;;;;;;5.00;4.27;;;17.90;99.90;;;;;;5402694;26;20527;-30
2024/04/13 04:01:14;;;;;;;7.57;4.67;;;17.90;99.90;;;;;;5398983;26;20550;-32
2024/04/13 04:03:41;;;;;;;4.57;4.17;;;17.90;99.90;;;;;;5398105;26;20448;-30
2024/04/13 04:06:08;;;;;;;4.47;4.07;;;17.80;99.90;;;;;;5367402;26;21203;-31
2024/04/13 04:08:34;;;;;;;5.30;4.67;;;17.80;99.90;;;;;;5395958;26;20506;-30
2024/04/13 04:11:02;;;;;;;5.27;4.13;;;17.80;99.90;;;;;;5397786;26;20530;-33
2024/04/13 04:13:29;;;;;;;7.67;4.40;;;17.80;99.90;;;;;;5397108;26;21092;-31
2024/04/13 04:15:55;;;;;;;4.87;4.00;;;17.80;99.90;;;;;;5395277;26;20503;-31
2024/04/13 04:18:21;;;;;;;6.10;4.03;;;17.80;99.90;;;;;;5397067;26;20989;-31
2024/04/13 04:20:49;;;;;;;6.23;4.30;;;17.80;99.90;;;;;;5396851;26;20849;-31
2024/04/13 04:23:15;;;;;;;4.63;4.20;;;17.80;99.90;;;;;;5366515;26;20547;-32
2024/04/13 04:25:42;;;;;;;5.83;3.73;;;17.80;99.90;;;;;;5397424;26;20572;-31
2024/04/13 04:28:09;;;;;;;5.07;4.10;;;17.70;99.90;;;;;;5396431;26;20568;-32
2024/04/13 04:30:34;;;;;;;4.47;4.03;;;17.80;99.90;;;;;;5395284;26;21052;-30
2024/04/13 04:33:01;;;;;;;6.03;4.30;;;17.80;99.90;;;;;;5395109;26;21056;-30
2024/04/13 04:35:29;;;;;;;5.33;4.80;;;17.70;99.90;;;;;;5396578;26;20507;-32
2024/04/13 04:37:55;;;;;;;5.63;4.37;;;17.70;99.90;;;;;;5393735;26;20444;-32
2024/04/13 04:40:22;;;;;;;6.87;4.07;;;17.70;99.90;;;;;;5364713;26;20510;-32
2024/04/13 04:42:49;;;;;;;5.23;4.33;;;17.70;99.90;;;;;;5396424;26;20805;-32
2024/04/13 04:45:18;;;;;;;5.37;4.77;;;17.70;99.90;;;;;;5396836;26;20447;-31
2024/04/13 04:47:49;;;;;;;7.63;5.30;;;17.70;99.90;;;;;;5362827;26;20965;-32
2024/04/13 04:50:15;;;;;;;4.73;4.33;;;17.70;99.90;;;;;;5394204;26;20605;-32
2024/04/13 04:52:41;;;;;;;5.70;4.70;;;17.70;99.90;;;;;;5393302;26;20585;-32
2024/04/13 04:55:07;;;;;;;5.73;4.20;;;17.70;99.90;;;;;;5363844;26;20459;-32
2024/04/13 04:57:33;;;;;;;5.27;4.33;;;17.70;99.90;;;;;;5364278;26;21255;-31
2024/04/13 04:59:59;;;;;;;4.73;4.30;;;17.70;99.90;;;;;;5396453;26;20463;-33
2024/04/13 05:02:27;;;;;;;4.80;4.40;;;17.60;99.90;;;;;;5367842;26;21285;-32
2024/04/13 05:04:54;;;;;;;4.60;4.10;;;17.60;99.90;;;;;;5398891;26;20455;-31
2024/04/13 05:07:23;;;;;;;5.87;4.70;;;17.70;99.90;;;;;;5399112;26;20471;-30
2024/04/13 05:09:49;;;;;;;4.40;4.00;;;17.60;99.90;;;;;;5398353;26;20451;-33
2024/04/13 05:12:15;;;;;;;5.03;4.53;;;17.60;99.90;;;;;;5427145;26;20515;-31
2024/04/13 05:14:42;;;;;;;5.30;4.67;;;17.60;99.90;;;;;;5399097;26;20444;-32
2024/04/13 05:17:13;;;;;;;5.10;4.20;;;17.60;99.90;;;;;;5398564;26;20578;-32
2024/04/13 05:19:39;;;;;;;7.77;4.40;;;17.60;99.90;;;;;;5398409;26;20554;-32
2024/04/13 05:22:05;;;;;;;5.00;3.93;;;17.60;99.90;;;;;;5396407;26;20565;-32
2024/04/13 05:24:32;;;;;;;5.30;4.03;;;17.60;99.90;;;;;;5397941;26;20443;-32
2024/04/13 05:26:59;;;;;;;5.57;4.87;;;17.60;99.90;;;;;;5395910;26;20507;-31
2024/04/13 05:29:25;;;;;;;6.97;4.60;;;17.50;99.90;;;;;;5396673;26;20455;-32
2024/04/13 05:31:51;;;;;;;8.93;5.07;;;17.50;99.90;;;;;;5366581;26;20459;-31
2024/04/13 05:34:17;;;;;;;4.43;3.53;;;17.50;99.90;;;;;;5366214;26;21191;-31
2024/04/13 05:36:46;;;;;;;5.13;4.00;;;17.50;99.90;;;;;;5367878;26;20463;-31
2024/04/13 05:39:14;;;;;;;4.97;4.37;;;17.50;99.90;;;;;;5398657;26;20455;-31
2024/04/13 05:41:40;;;;;;;4.87;4.43;;;17.50;99.90;;;;;;5396129;26;20455;-32
2024/04/13 05:44:06;;;;;;;6.93;4.70;;;17.50;99.90;;;;;;5365864;26;21011;-31
2024/04/13 05:46:35;;;;;;;5.30;3.77;;;17.50;99.90;;;;;;5396598;26;20435;-30
2024/04/13 05:49:01;;;;;;;6.37;4.67;;;17.50;99.90;;;;;;5396878;26;21286;-32
2024/04/13 05:51:27;;;;;;;4.90;4.37;;;17.50;99.90;;;;;;5402437;26;20860;-31
2024/04/13 05:53:53;;;;;;;4.50;3.97;;;17.50;99.90;;;;;;5397068;26;20560;-31
2024/04/13 05:56:19;;;;;;;7.70;4.50;;;17.50;99.90;;;;;;5398031;26;20569;-31
2024/04/13 05:58:45;;;;;;;6.70;4.47;;;17.50;99.90;;;;;;5397439;26;20455;-32
2024/04/13 06:01:11;;;;;;;7.43;4.90;;;17.50;99.90;;;;;;5397096;26;21021;-32
2024/04/13 06:03:38;;;;;;;4.77;4.27;;;17.50;99.90;;;;;;5366875;26;20510;-31
2024/04/13 06:06:05;;;;;;;4.80;4.13;;;17.50;99.90;;;;;;5394924;26;20586;-32
2024/04/13 06:08:31;;;;;;;6.40;4.17;;;17.40;99.90;;;;;;5395326;26;20460;-31
2024/04/13 06:10:57;;;;;;;4.77;4.27;;;17.40;99.90;;;;;;5364104;26;20531;-31
2024/04/13 06:13:23;;;;;;;5.10;4.40;;;17.40;99.90;;;;;;5395079;26;20502;-31
2024/04/13 06:15:49;;;;;;;5.17;3.73;;;17.40;99.90;;;;;;5396709;26;20451;-31
2024/04/13 06:18:18;;;;;;;5.40;4.50;;;17.40;99.90;;;;;;5396780;26;21198;-31
2024/04/13 06:20:46;;;;;;;5.77;4.10;;;17.40;99.90;;;;;;5397758;26;20516;-31
2024/04/13 06:23:12;;;;;;;5.00;4.50;;;17.40;99.90;;;;;;5398082;26;20516;-31
2024/04/13 06:25:38;;;;;;;4.90;4.40;;;17.40;99.90;;;;;;5395919;26;20895;-31
2024/04/13 06:28:04;;;;;;;5.60;4.63;;;17.40;99.90;;;;;;5397333;26;20467;-32
2024/04/13 06:30:33;;;;;;;4.00;3.40;;;17.40;99.90;;;;;;5395864;26;21241;-30
2024/04/13 06:32:59;;;;;;;7.67;4.53;;;17.40;99.90;;;;;;5395685;26;20458;-30
2024/04/13 06:35:25;;;;;;;4.40;4.00;;;17.40;99.90;;;;;;5365932;26;20488;-31
2024/04/13 06:37:53;;;;;;;4.47;3.80;;;17.40;99.90;;;;;;5396542;26;20516;-29
2024/04/13 06:40:19;;;;;;;4.83;3.93;;;17.40;99.90;;;;;;5396187;26;20512;-31
2024/04/13 06:42:45;;;;;;;4.80;3.80;;;17.40;99.90;;;;;;5394951;26;21160;-31
2024/04/13 06:45:11;;;;;;;6.43;4.23;;;17.40;99.90;;;;;;5394775;26;20507;-31
2024/04/13 06:47:37;;;;;;;4.47;4.00;;;17.40;99.90;;;;;;5394695;26;20523;-31
2024/04/13 06:50:03;;;;;;;6.13;4.27;;;17.40;99.90;;;;;;5394743;26;20508;-31
2024/04/13 06:52:29;;;;;;;4.50;4.10;;;17.40;99.90;;;;;;5397631;26;20523;-32
2024/04/13 06:54:58;;;;;;;5.63;4.53;;;17.40;99.90;;;;;;5401218;26;20527;-31
2024/04/13 06:57:26;;;;;;;7.70;4.50;;;17.40;99.90;;;;;;5401582;26;20515;-32
2024/04/13 06:59:52;;;;;;;7.33;4.33;;;17.40;99.90;;;;;;5397734;26;20487;-32
2024/04/13 07:02:19;;;;;;;12.67;5.23;;;17.40;99.90;;;;;;5397042;26;20498;-32
2024/04/13 07:04:45;;;;;;;8.17;4.77;;;17.50;99.90;;;;;;5395455;26;20577;-31
2024/04/13 07:07:12;;;;;;;13.73;6.40;;;17.40;99.90;;;;;;5397168;26;20444;-32
2024/04/13 07:09:38;;;;;;;9.20;5.60;;;17.50;99.90;;;;;;5395097;26;20807;-32
2024/04/13 07:12:08;;;;;;;6.43;4.70;;;17.50;99.90;;;;;;5397006;26;20471;-31
2024/04/13 07:14:35;;;;;;;9.83;5.87;;;17.50;99.90;;;;;;5397482;26;20527;-32
2024/04/13 07:17:04;;;;;;;12.30;5.93;;;17.50;99.90;;;;;;5366211;26;20798;-32
2024/04/13 07:19:30;;;;;;;8.53;5.33;;;17.50;99.90;;;;;;5396753;26;21289;-32
2024/04/13 07:21:58;;;;;;;12.97;5.40;;;17.50;99.90;;;;;;5396187;26;21084;-31
2024/04/13 07:24:27;;;;;;;12.17;6.10;;;17.50;99.90;;;;;;5393470;26;20470;-30
2024/04/13 07:26:54;;;;;;;8.77;5.50;;;17.50;99.90;;;;;;5397064;26;20840;-32
2024/04/13 07:29:20;;;;;;;9.93;5.30;;;17.50;99.90;;;;;;5393997;26;20535;-32
2024/04/13 07:31:46;;;;;;;11.40;5.50;;;17.50;99.90;;;;;;5396992;26;20455;-33
2024/04/13 07:34:12;;;;;;;8.23;5.80;;;17.50;99.90;;;;;;5423264;26;21184;-33
2024/04/13 07:36:38;;;;;;;9.50;5.80;;;17.50;99.90;;;;;;5392189;26;20455;-33
2024/04/13 07:39:04;;;;;;;7.20;5.20;;;17.50;99.90;;;;;;5391843;26;20447;-32
2024/04/13 07:41:30;;;;;;;7.07;5.00;;;17.50;99.90;;;;;;5423506;26;20459;-32
2024/04/13 07:43:56;;;;;;;8.27;5.23;;;17.50;99.90;;;;;;5395684;26;20515;-32
2024/04/13 07:46:26;;;;;;;7.00;4.83;;;17.50;99.90;;;;;;5393230;26;20471;-32
2024/04/13 07:48:56;;;;;;;7.90;4.47;;;17.50;99.90;;;;;;5393810;26;20502;-33
2024/04/13 07:51:23;;;;;;;7.50;5.20;;;17.50;99.90;;;;;;5394774;26;20479;-32
2024/04/13 07:53:51;;;;;;;5.33;4.00;;;17.50;99.90;;;;;;5396478;26;20518;-32
2024/04/13 07:56:17;;;;;;;6.60;5.03;;;17.50;99.90;;;;;;5396002;26;20522;-32
2024/04/13 07:58:43;;;;;;;6.40;4.57;;;17.50;99.90;;;;;;5394326;26;20455;-32
2024/04/13 08:01:10;;;;;;;7.43;5.37;;;17.50;99.90;;;;;;5423968;26;20471;-32
2024/04/13 08:03:38;;;;;;;7.43;4.87;;;17.50;99.90;;;;;;5396033;26;20521;-32
2024/04/13 08:06:06;;;;;;;7.90;5.10;;;17.50;99.90;;;;;;5395519;26;20930;-34
2024/04/13 08:08:32;;;;;;;7.13;5.00;;;17.50;99.90;;;;;;5393504;26;20857;-32
2024/04/13 08:10:59;;;;;;;6.33;4.53;;;17.50;99.90;;;;;;5395622;26;20589;-32
2024/04/13 08:13:25;;;;;;;7.87;4.63;;;17.60;99.90;;;;;;5398822;26;20538;-32
2024/04/13 08:15:51;;;;;;;6.20;5.13;;;17.60;99.90;;;;;;5394912;26;20921;-32
2024/04/13 08:18:18;;;;;;;8.83;5.33;;;17.50;99.90;;;;;;5399022;26;20459;-32
2024/04/13 08:20:45;;;;;;;8.73;4.80;;;17.60;99.90;;;;;;5399092;26;21013;-33
2024/04/13 08:23:14;;;;;;;5.20;4.53;;;17.60;99.90;;;;;;5395684;26;20466;-32
2024/04/13 08:25:42;;;;;;;7.77;4.60;;;17.60;99.90;;;;;;5394433;26;20491;-32
2024/04/13 08:28:08;;;;;;;5.00;4.10;;;17.60;99.90;;;;;;5394721;26;20471;-32
2024/04/13 08:30:39;;;;;;;5.57;4.17;;;17.60;99.90;;;;;;5395518;26;20956;-32
2024/04/13 08:33:07;;;;;;;4.90;4.40;;;17.70;99.90;;;;;;5394576;26;20503;-32
2024/04/13 08:35:33;;;;;;;8.37;4.67;;;17.70;99.90;;;;;;5368746;26;20451;-31
2024/04/13 08:37:59;;;;;;;5.70;4.17;;;17.60;99.90;;;;;;5399431;26;20511;-32
2024/04/13 08:40:25;;;;;;;6.70;4.17;;;17.70;99.90;;;;;;5402681;26;20576;-33
2024/04/13 08:42:53;;;;;;;4.80;4.30;;;17.70;99.90;;;;;;5400098;26;20557;-33
2024/04/13 08:45:22;;;;;;;7.63;4.20;;;17.70;99.90;;;;;;5367175;26;20882;-30
2024/04/13 08:47:51;;;;;;;6.20;4.67;;;17.70;99.90;;;;;;5396646;26;21023;-32
2024/04/13 08:50:19;;;;;;;6.60;5.13;;;17.80;99.90;;;;;;5368322;26;20474;-33
2024/04/13 08:52:46;;;;;;;6.07;4.60;;;17.80;99.90;;;;;;5397766;26;20554;-33
2024/04/13 08:55:15;;;;;;;7.43;4.83;;;17.80;99.90;;;;;;5398271;26;20507;-32
2024/04/13 08:57:42;;;;;;;6.30;4.67;;;17.80;99.90;;;;;;5397413;26;20526;-32
2024/04/13 09:00:16;;;;;;;5.03;4.53;;;17.80;99.90;;;;;;5396020;26;20463;-32
2024/04/13 09:02:50;;;;;;;7.93;5.07;;;17.80;99.90;;;;;;5402365;26;20514;-32
2024/04/13 09:05:16;;;;;;;11.50;4.70;;;17.80;99.90;;;;;;5399052;26;20570;-33
2024/04/13 09:07:44;;;;;;;6.83;4.83;;;17.80;99.90;;;;;;5399253;26;20577;-33
2024/04/13 09:10:11;;;;;;;5.70;4.20;;;17.90;99.90;;;;;;5399762;26;20464;-32
2024/04/13 09:12:39;;;;;;;5.40;4.23;;;17.90;99.90;;;;;;5398474;26;20439;-33
2024/04/13 09:15:07;;;;;;;6.33;4.47;;;17.90;99.90;;;;;;5398845;26;20459;-33
2024/04/13 09:17:33;;;;;;;5.63;4.80;;;17.90;99.90;;;;;;5397275;26;20488;-32
2024/04/13 09:20:17;;;;;;;6.33;5.10;;;17.90;99.90;;;;;;5399080;26;20560;-32
2024/04/13 09:22:44;;;;;;;6.40;4.83;;;17.90;99.90;;;;;;5398258;26;20498;-33
2024/04/13 09:25:20;;;;;;;8.83;5.00;;;18.00;99.90;;;;;;5402378;26;20471;-33
2024/04/13 09:28:02;;;;;;;9.63;4.90;;;18.00;99.90;;;;;;5401592;26;21173;-35
2024/04/13 09:30:28;;;;;;;5.43;4.60;;;18.00;99.90;;;;;;5388598;26;21294;-33
2024/04/13 09:33:03;;;;;;;6.70;4.93;;;18.00;99.90;;;;;;5397434;26;20478;-35
2024/04/13 09:35:30;;;;;;;6.43;4.40;;;18.10;99.90;;;;;;5390363;26;20486;-34
2024/04/13 09:38:00;;;;;;;7.20;4.77;;;18.10;99.90;;;;;;5402562;26;20538;-34
2024/04/13 09:40:30;;;;;;;5.63;4.60;;;18.10;99.90;;;;;;5379359;26;21753;-34
2024/04/13 09:42:59;;;;;;;12.40;5.57;;;18.10;99.90;;;;;;5399097;26;20465;-34
2024/04/13 09:45:26;;;;;;;8.30;4.93;;;18.20;99.90;;;;;;5397546;26;20465;-34
2024/04/13 09:47:56;;;;;;;10.00;6.03;;;18.30;99.90;;;;;;5403206;26;20606;-34
2024/04/13 09:50:27;;;;;;;6.73;6.00;;;18.30;99.90;;;;;;5389466;26;20488;-31
2024/04/13 09:52:57;;;;;;;10.00;5.53;;;18.40;99.90;;;;;;5386988;26;21214;-30
2024/04/13 09:55:23;;;;;;;13.20;6.67;;;18.60;99.90;;;;;;5396232;26;20515;-32
2024/04/13 09:57:52;;;;;;;13.10;4.87;;;18.70;99.90;;;;;;5389998;26;20528;-33
2024/04/13 10:00:19;;;;;;;14.23;4.67;;;18.80;99.90;;;;;;5398079;26;21032;-35
2024/04/13 10:02:46;;;;;;;7.37;4.60;;;19.00;99.90;;;;;;5433560;26;20504;-33
2024/04/13 10:05:12;;;;;;;13.03;5.13;;;19.10;99.90;;;;;;5397255;26;20850;-31
2024/04/13 10:07:39;;;;;;;14.70;5.00;;;19.20;99.90;;;;;;5400205;26;20518;-33
2024/04/13 10:10:13;;;;;;;16.57;5.67;;;19.30;99.90;;;;;;5388478;26;20515;-32
2024/04/13 10:12:41;;;;;;;10.10;4.87;;;19.40;99.90;;;;;;5389761;26;21429;-32
2024/04/13 10:15:09;;;;;;;11.50;5.30;;;19.50;99.90;;;;;;5379812;26;20523;-32
2024/04/13 10:17:38;;;;;;;9.10;4.30;;;19.60;99.90;;;;;;5389002;26;21013;-32
2024/04/13 10:20:05;;;;;;;5.97;3.27;;;19.70;99.90;;;;;;5427668;26;20818;-33
2024/04/13 10:22:33;;;;;;;6.80;3.80;;;19.80;99.90;;;;;;5389905;26;20461;-32
2024/04/13 10:25:04;;;;;;;9.00;3.50;;;19.90;99.90;;;;;;5383207;26;20576;-30
2024/04/13 10:27:34;;;;;;;16.50;4.00;;;19.90;99.90;;;;;;5397221;26;20577;-32
2024/04/13 10:30:01;;;;;;;16.33;3.67;;;20.00;99.90;;;;;;5397556;26;20534;-32
2024/04/13 10:32:28;;;;;;;6.33;3.27;;;20.10;99.90;;;;;;5397443;26;20523;-33
2024/04/13 10:34:58;;;;;;;14.37;4.33;;;20.20;99.90;;;;;;5410519;26;20465;-32
2024/04/13 10:37:30;;;;;;;12.03;3.67;;;20.30;99.90;;;;;;5394179;26;20477;-34
2024/04/13 10:39:59;;;;;;;11.70;3.70;;;20.30;99.90;;;;;;5395653;26;20476;-33
2024/04/13 10:42:40;;;;;;;4.63;3.13;;;20.40;99.90;;;;;;5401694;26;20570;-33
2024/04/13 10:45:17;;;;;;;5.63;3.20;;;20.50;99.90;;;;;;5379664;26;20705;-32
2024/04/13 10:47:46;;;;;;;7.70;3.40;;;20.50;99.90;;;;;;5392063;26;20481;-33
2024/04/13 10:50:17;;;;;;;8.13;3.50;;;20.60;99.90;;;;;;5386877;26;20813;-34
2024/04/13 10:52:44;;;;;;;10.77;3.30;;;20.60;99.90;;;;;;5394416;26;21192;-33
2024/04/13 10:55:16;;;;;;;4.50;2.90;;;20.70;99.90;;;;;;5402027;26;21443;-35
2024/04/13 10:57:43;;;;;;;7.00;3.43;;;20.80;99.90;;;;;;5400037;26;20468;-32
2024/04/13 11:00:10;;;;;;;5.13;3.20;;;20.80;99.90;;;;;;5389405;26;20534;-32
2024/04/13 11:02:39;;;;;;;3.80;3.40;;;20.80;99.90;;;;;;5398612;26;20513;-32
2024/04/13 11:05:06;;;;;;;3.20;2.90;;;20.80;99.90;;;;;;5393404;26;20979;-33
2024/04/13 11:07:32;;;;;;;4.07;2.83;;;20.70;99.90;;;;;;5395276;26;20516;-32
2024/04/13 11:10:04;;;;;;;8.97;4.80;;;20.70;99.90;;;;;;5378741;26;20493;-33
2024/04/13 11:12:30;;;;;;;5.03;3.10;;;20.70;99.90;;;;;;5400112;26;20525;-31
2024/04/13 11:14:57;;;;;;;3.00;2.70;;;20.70;99.90;;;;;;5390746;26;20477;-32
2024/04/13 11:17:26;;;;;;;5.33;3.57;;;20.60;99.90;;;;;;5391698;26;20536;-31
2024/04/13 11:19:53;;;;;;;3.40;3.03;;;20.60;99.90;;;;;;5390160;26;21250;-33
2024/04/13 11:22:19;;;;;;;4.13;3.37;;;20.60;99.90;;;;;;5385511;26;20473;-32
2024/04/13 11:24:48;;;;;;;4.50;3.37;;;20.60;99.90;;;;;;5382736;26;20532;-32
2024/04/13 11:27:18;;;;;;;4.07;3.37;;;20.60;99.90;;;;;;5389851;26;20543;-33
2024/04/13 11:29:44;;;;;;;6.17;3.53;;;20.60;99.90;;;;;;5388295;26;20476;-33
2024/04/13 11:32:10;;;;;;;5.43;3.33;;;20.60;99.90;;;;;;5408247;26;20466;-33
2024/04/13 11:34:38;;;;;;;5.30;3.10;;;20.60;99.90;;;;;;5408879;26;20464;-33
2024/04/13 11:37:05;;;;;;;5.67;3.63;;;20.60;99.90;;;;;;5395918;26;20455;-33
2024/04/13 11:39:34;;;;;;;3.47;3.17;;;20.60;99.90;;;;;;5386111;26;20530;-33
2024/04/13 11:42:07;;;;;;;4.53;3.43;;;20.60;99.90;;;;;;5391889;26;20608;-34
2024/04/13 11:44:40;;;;;;;7.37;3.23;;;20.60;99.90;;;;;;5393658;26;20444;-33
2024/04/13 11:47:08;;;;;;;3.67;2.97;;;20.60;99.90;;;;;;5407717;26;20472;-33
2024/04/13 11:49:37;;;;;;;3.70;3.30;;;20.60;99.90;;;;;;5378660;26;20907;-31
2024/04/13 11:52:04;;;;;;;5.50;3.47;;;20.60;99.90;;;;;;5392264;26;20969;-33
2024/04/13 11:54:31;;;;;;;5.37;3.10;;;20.60;99.90;;;;;;5401352;26;21591;-31
2024/04/13 11:57:01;;;;;;;4.80;3.40;;;20.60;99.90;;;;;;5392305;26;20457;-31
2024/04/13 11:59:27;;;;;;;3.03;2.73;;;20.60;99.90;;;;;;5394079;26;20585;-32
2024/04/13 12:01:54;;;;;;;3.63;2.73;;;20.60;99.90;;;;;;5406765;26;20482;-32
2024/04/13 12:04:22;;;;;;;4.30;3.20;;;20.60;99.90;;;;;;5413112;26;20506;-33
2024/04/13 12:06:48;;;;;;;7.97;4.57;;;20.60;99.90;;;;;;5394033;26;20585;-44
2024/04/13 12:09:14;;;;;;;4.20;3.03;;;20.70;99.90;;;;;;5375288;26;20460;-32
2024/04/13 12:11:40;;;;;;;3.80;2.97;;;20.70;99.90;;;;;;5395480;26;20876;-32
2024/04/13 12:14:07;;;;;;;3.70;3.13;;;20.70;99.90;;;;;;5360215;26;20523;-32
2024/04/13 12:16:33;;;;;;;6.13;3.23;;;20.70;99.90;;;;;;5392893;26;20533;-33
2024/04/13 12:18:59;;;;;;;4.80;2.90;;;20.70;99.90;;;;;;5410585;26;21426;-31
2024/04/13 12:21:25;;;;;;;4.97;3.20;;;20.80;99.90;;;;;;5417592;26;20565;-32
2024/04/13 12:23:51;;;;;;;5.23;2.83;;;20.80;99.90;;;;;;5407105;26;20533;-31
2024/04/13 12:26:17;;;;;;;5.33;3.47;;;20.80;99.90;;;;;;5393687;26;21016;-33
2024/04/13 12:28:43;;;;;;;4.57;3.20;;;20.80;99.90;;;;;;5393229;26;20461;-33
2024/04/13 12:31:10;;;;;;;4.80;3.23;;;20.90;99.90;;;;;;5391140;26;20512;-32
2024/04/13 12:33:36;;;;;;;4.03;3.10;;;20.90;99.70;;;;;;5400629;26;20515;-33
2024/04/13 12:36:05;;;;;;;3.50;3.20;;;20.90;99.60;;;;;;5389405;26;21602;-32
2024/04/13 12:38:31;;;;;;;7.83;3.33;;;20.90;99.60;;;;;;5395903;26;21236;-33
2024/04/13 12:40:59;;;;;;;6.77;2.83;;;21.00;99.50;;;;;;5396959;26;21064;-33
2024/04/13 12:43:28;;;;;;;3.90;3.50;;;21.00;99.50;;;;;;5386011;26;20461;-33
2024/04/13 12:45:56;;;;;;;7.57;3.23;;;21.00;99.40;;;;;;5425757;26;20462;-39